sensor_id;sensor_type;location;lat;lon;timestamp;temperature;humidity
16491;DHT22;8356;51.214;3.270;2024-02-21T00:01:46;307.30;2304.00
16491;DHT22;8356;51.214;3.270;2024-02-21T00:04:11;307.20;2304.00
16491;DHT22;8356;51.214;3.270;2024-02-21T00:06:37;307.20;2304.00
16491;DHT22;8356;51.214;3.270;2024-02-21T00:09:03;282.50;2278.40
16491;DHT22;8356;51.214;3.270;2024-02-21T00:11:28;282.50;2278.40
16491;DHT22;8356;51.214;3.270;2024-02-21T00:13:54;282.50;2278.40
16491;DHT22;8356;51.214;3.270;2024-02-21T00:16:20;307.30;2304.00
16491;DHT22;8356;51.214;3.270;2024-02-21T00:18:46;282.50;2278.40
16491;DHT22;8356;51.214;3.270;2024-02-21T00:21:11;282.50;2278.40
16491;DHT22;8356;51.214;3.270;2024-02-21T00:23:44;282.50;2278.40
16491;DHT22;8356;51.214;3.270;2024-02-21T00:26:12;282.50;2278.40
16491;DHT22;8356;51.214;3.270;2024-02-21T00:28:39;282.50;2278.40
16491;DHT22;8356;51.214;3.270;2024-02-21T00:31:04;282.50;2278.40
16491;DHT22;8356;51.214;3.270;2024-02-21T00:33:30;282.50;2278.40
16491;DHT22;8356;51.214;3.270;2024-02-21T00:35:56;282.50;2278.40
16491;DHT22;8356;51.214;3.270;2024-02-21T00:38:21;282.50;2278.40
16491;DHT22;8356;51.214;3.270;2024-02-21T00:40:47;282.50;2278.40
16491;DHT22;8356;51.214;3.270;2024-02-21T00:43:13;282.50;2278.40
16491;DHT22;8356;51.214;3.270;2024-02-21T00:45:38;282.50;2278.40
16491;DHT22;8356;51.214;3.270;2024-02-21T00:48:05;282.40;2278.40
16491;DHT22;8356;51.214;3.270;2024-02-21T00:50:30;282.50;2278.40
16491;DHT22;8356;51.214;3.270;2024-02-21T00:52:57;307.20;2304.00
16491;DHT22;8356;51.214;3.270;2024-02-21T00:55:23;307.20;2304.00
16491;DHT22;8356;51.214;3.270;2024-02-21T00:57:48;282.50;2278.40
16491;DHT22;8356;51.214;3.270;2024-02-21T01:00:14;282.50;2278.40
16491;DHT22;8356;51.214;3.270;2024-02-21T01:02:40;282.50;2278.40
16491;DHT22;8356;51.214;3.270;2024-02-21T01:05:06;282.40;2278.40
16491;DHT22;8356;51.214;3.270;2024-02-21T01:07:31;282.50;2278.40
16491;DHT22;8356;51.214;3.270;2024-02-21T01:09:57;282.50;2278.40
16491;DHT22;8356;51.214;3.270;2024-02-21T01:12:23;282.50;2278.40
16491;DHT22;8356;51.214;3.270;2024-02-21T01:14:48;282.50;2278.40
16491;DHT22;8356;51.214;3.270;2024-02-21T01:17:15;282.50;2278.40
16491;DHT22;8356;51.214;3.270;2024-02-21T01:19:41;282.50;2278.40
16491;DHT22;8356;51.214;3.270;2024-02-21T01:22:06;282.40;2278.40
16491;DHT22;8356;51.214;3.270;2024-02-21T01:24:32;282.40;2278.40
16491;DHT22;8356;51.214;3.270;2024-02-21T01:26:58;282.40;2278.40
16491;DHT22;8356;51.214;3.270;2024-02-21T01:29:23;282.40;2278.40
16491;DHT22;8356;51.214;3.270;2024-02-21T01:31:49;282.30;2278.40
16491;DHT22;8356;51.214;3.270;2024-02-21T01:34:15;282.30;2278.40
16491;DHT22;8356;51.214;3.270;2024-02-21T01:36:40;282.30;2278.40
16491;DHT22;8356;51.214;3.270;2024-02-21T01:39:07;282.30;2278.40
16491;DHT22;8356;51.214;3.270;2024-02-21T01:41:33;282.40;2278.40
16491;DHT22;8356;51.214;3.270;2024-02-21T01:43:58;282.40;2278.40
16491;DHT22;8356;51.214;3.270;2024-02-21T01:46:24;282.40;2278.40
16491;DHT22;8356;51.214;3.270;2024-02-21T01:48:57;282.40;2278.40
16491;DHT22;8356;51.214;3.270;2024-02-21T01:51:26;282.30;2278.40
16491;DHT22;8356;51.214;3.270;2024-02-21T01:53:53;282.40;2278.40
16491;DHT22;8356;51.214;3.270;2024-02-21T01:56:21;282.40;2278.40
16491;DHT22;8356;51.214;3.270;2024-02-21T01:58:48;282.40;2278.40
16491;DHT22;8356;51.214;3.270;2024-02-21T02:01:14;282.40;2278.40
16491;DHT22;8356;51.214;3.270;2024-02-21T02:03:40;282.40;2278.40
16491;DHT22;8356;51.214;3.270;2024-02-21T02:06:06;282.30;2278.40
16491;DHT22;8356;51.214;3.270;2024-02-21T02:08:34;282.30;2278.40
16491;DHT22;8356;51.214;3.270;2024-02-21T02:11:00;282.30;2278.40
16491;DHT22;8356;51.214;3.270;2024-02-21T02:13:26;307.60;2304.00
16491;DHT22;8356;51.214;3.270;2024-02-21T02:15:52;282.40;2278.40
16491;DHT22;8356;51.214;3.270;2024-02-21T02:18:19;282.50;2278.40
16491;DHT22;8356;51.214;3.270;2024-02-21T02:20:45;282.50;2278.40
16491;DHT22;8356;51.214;3.270;2024-02-21T02:23:30;282.50;2278.40
16491;DHT22;8356;51.214;3.270;2024-02-21T02:26:00;282.50;2278.40
16491;DHT22;8356;51.214;3.270;2024-02-21T02:28:28;282.50;2278.40
16491;DHT22;8356;51.214;3.270;2024-02-21T02:30:54;282.50;2278.40
16491;DHT22;8356;51.214;3.270;2024-02-21T02:33:20;282.50;2278.40
16491;DHT22;8356;51.214;3.270;2024-02-21T02:35:46;282.50;2278.40
16491;DHT22;8356;51.214;3.270;2024-02-21T02:38:12;307.20;2304.00
16491;DHT22;8356;51.214;3.270;2024-02-21T02:40:39;307.20;2304.00
16491;DHT22;8356;51.214;3.270;2024-02-21T02:43:06;307.20;2304.00
16491;DHT22;8356;51.214;3.270;2024-02-21T02:45:32;307.20;2304.00
16491;DHT22;8356;51.214;3.270;2024-02-21T02:47:58;307.20;2304.00
16491;DHT22;8356;51.214;3.270;2024-02-21T02:50:24;307.20;2304.00
16491;DHT22;8356;51.214;3.270;2024-02-21T02:52:50;307.60;2304.00
16491;DHT22;8356;51.214;3.270;2024-02-21T02:55:16;307.20;2304.00
16491;DHT22;8356;51.214;3.270;2024-02-21T02:57:42;282.50;2278.40
16491;DHT22;8356;51.214;3.270;2024-02-21T03:00:08;307.20;2304.00
16491;DHT22;8356;51.214;3.270;2024-02-21T03:02:35;282.50;2278.40
16491;DHT22;8356;51.214;3.270;2024-02-21T03:05:01;282.50;2278.40
16491;DHT22;8356;51.214;3.270;2024-02-21T03:07:36;282.50;2278.40
16491;DHT22;8356;51.214;3.270;2024-02-21T03:10:02;282.50;2278.40
16491;DHT22;8356;51.214;3.270;2024-02-21T03:12:27;282.40;2278.40
16491;DHT22;8356;51.214;3.270;2024-02-21T03:14:54;282.50;2278.40
16491;DHT22;8356;51.214;3.270;2024-02-21T03:17:20;282.50;2278.40
16491;DHT22;8356;51.214;3.270;2024-02-21T03:19:46;307.30;2304.00
16491;DHT22;8356;51.214;3.270;2024-02-21T03:22:11;307.30;2304.00
16491;DHT22;8356;51.214;3.270;2024-02-21T03:24:37;307.30;2304.00
16491;DHT22;8356;51.214;3.270;2024-02-21T03:27:03;307.30;2304.00
16491;DHT22;8356;51.214;3.270;2024-02-21T03:29:28;307.30;2304.00
16491;DHT22;8356;51.214;3.270;2024-02-21T03:31:55;307.30;2304.00
16491;DHT22;8356;51.214;3.270;2024-02-21T03:34:20;307.30;2304.00
16491;DHT22;8356;51.214;3.270;2024-02-21T03:36:46;307.30;2304.00
16491;DHT22;8356;51.214;3.270;2024-02-21T03:39:12;307.20;2304.00
16491;DHT22;8356;51.214;3.270;2024-02-21T03:41:37;307.20;2304.00
16491;DHT22;8356;51.214;3.270;2024-02-21T03:44:03;282.50;2278.40
16491;DHT22;8356;51.214;3.270;2024-02-21T03:46:30;307.20;2304.00
16491;DHT22;8356;51.214;3.270;2024-02-21T03:48:57;307.20;2304.00
16491;DHT22;8356;51.214;3.270;2024-02-21T03:51:22;282.50;2278.40
16491;DHT22;8356;51.214;3.270;2024-02-21T04:19:30;282.50;2278.40
16491;DHT22;8356;51.214;3.270;2024-02-21T04:21:56;282.50;2278.40
16491;DHT22;8356;51.214;3.270;2024-02-21T04:24:22;307.20;2304.00
16491;DHT22;8356;51.214;3.270;2024-02-21T04:26:47;307.30;2304.00
16491;DHT22;8356;51.214;3.270;2024-02-21T04:29:13;307.20;2304.00
16491;DHT22;8356;51.214;3.270;2024-02-21T04:31:39;307.20;2304.00
16491;DHT22;8356;51.214;3.270;2024-02-21T04:34:06;307.20;2304.00
16491;DHT22;8356;51.214;3.270;2024-02-21T04:36:31;307.20;2304.00
16491;DHT22;8356;51.214;3.270;2024-02-21T04:38:58;307.20;2304.00
16491;DHT22;8356;51.214;3.270;2024-02-21T04:41:24;307.30;2304.00
16491;DHT22;8356;51.214;3.270;2024-02-21T04:43:50;307.30;2304.00
16491;DHT22;8356;51.214;3.270;2024-02-21T04:46:15;307.20;2304.00
16491;DHT22;8356;51.214;3.270;2024-02-21T04:48:41;307.20;2304.00
16491;DHT22;8356;51.214;3.270;2024-02-21T04:51:06;307.30;2304.00
16491;DHT22;8356;51.214;3.270;2024-02-21T04:53:32;307.30;2304.00
16491;DHT22;8356;51.214;3.270;2024-02-21T04:55:58;307.20;2304.00
16491;DHT22;8356;51.214;3.270;2024-02-21T04:58:24;307.40;2304.00
16491;DHT22;8356;51.214;3.270;2024-02-21T05:00:50;307.70;2304.00
16491;DHT22;8356;51.214;3.270;2024-02-21T05:03:15;307.30;2304.00
16491;DHT22;8356;51.214;3.270;2024-02-21T05:05:41;307.30;2304.00
16491;DHT22;8356;51.214;3.270;2024-02-21T05:08:07;307.30;2304.00
16491;DHT22;8356;51.214;3.270;2024-02-21T05:10:33;307.20;2304.00
16491;DHT22;8356;51.214;3.270;2024-02-21T05:12:58;307.20;2304.00
16491;DHT22;8356;51.214;3.270;2024-02-21T05:15:24;307.20;2304.00
16491;DHT22;8356;51.214;3.270;2024-02-21T05:17:50;307.30;2304.00
16491;DHT22;8356;51.214;3.270;2024-02-21T05:20:15;307.20;2304.00
16491;DHT22;8356;51.214;3.270;2024-02-21T05:22:41;282.50;2278.40
16491;DHT22;8356;51.214;3.270;2024-02-21T05:25:07;307.20;2304.00
16491;DHT22;8356;51.214;3.270;2024-02-21T05:27:33;307.20;2304.00
16491;DHT22;8356;51.214;3.270;2024-02-21T05:30:00;307.20;2304.00
16491;DHT22;8356;51.214;3.270;2024-02-21T05:32:26;307.30;2304.00
16491;DHT22;8356;51.214;3.270;2024-02-21T05:34:51;307.20;2304.00
16491;DHT22;8356;51.214;3.270;2024-02-21T05:37:17;282.50;2278.40
16491;DHT22;8356;51.214;3.270;2024-02-21T05:39:43;282.50;2278.40
16491;DHT22;8356;51.214;3.270;2024-02-21T05:42:09;282.50;2278.40
16491;DHT22;8356;51.214;3.270;2024-02-21T05:44:35;282.50;2278.40
16491;DHT22;8356;51.214;3.270;2024-02-21T05:47:00;282.50;2278.40
16491;DHT22;8356;51.214;3.270;2024-02-21T05:49:26;307.20;2304.00
16491;DHT22;8356;51.214;3.270;2024-02-21T05:51:51;307.20;2304.00
16491;DHT22;8356;51.214;3.270;2024-02-21T05:54:17;307.30;2304.00
16491;DHT22;8356;51.214;3.270;2024-02-21T05:56:46;307.20;2304.00
16491;DHT22;8356;51.214;3.270;2024-02-21T05:59:12;307.20;2304.00
16491;DHT22;8356;51.214;3.270;2024-02-21T06:01:38;307.20;2304.00
16491;DHT22;8356;51.214;3.270;2024-02-21T06:04:03;307.20;2304.00
16491;DHT22;8356;51.214;3.270;2024-02-21T06:06:30;282.50;2278.40
16491;DHT22;8356;51.214;3.270;2024-02-21T06:08:55;282.50;2278.40
16491;DHT22;8356;51.214;3.270;2024-02-21T06:11:21;307.20;2304.00
16491;DHT22;8356;51.214;3.270;2024-02-21T06:13:47;307.20;2304.00
16491;DHT22;8356;51.214;3.270;2024-02-21T06:16:12;307.20;2304.00
16491;DHT22;8356;51.214;3.270;2024-02-21T06:18:38;307.20;2304.00
16491;DHT22;8356;51.214;3.270;2024-02-21T06:21:04;307.20;2304.00
16491;DHT22;8356;51.214;3.270;2024-02-21T06:23:30;307.30;2304.00
16491;DHT22;8356;51.214;3.270;2024-02-21T06:25:55;307.20;2304.00
16491;DHT22;8356;51.214;3.270;2024-02-21T06:28:21;307.20;2304.00
16491;DHT22;8356;51.214;3.270;2024-02-21T06:30:46;307.20;2304.00
16491;DHT22;8356;51.214;3.270;2024-02-21T06:33:12;282.50;2278.40
16491;DHT22;8356;51.214;3.270;2024-02-21T06:35:38;282.50;2278.40
16491;DHT22;8356;51.214;3.270;2024-02-21T06:38:06;282.50;2278.40
16491;DHT22;8356;51.214;3.270;2024-02-21T06:40:33;282.50;2278.40
16491;DHT22;8356;51.214;3.270;2024-02-21T06:43:04;307.20;2304.00
16491;DHT22;8356;51.214;3.270;2024-02-21T06:45:29;307.20;2304.00
16491;DHT22;8356;51.214;3.270;2024-02-21T06:47:55;307.20;2304.00
16491;DHT22;8356;51.214;3.270;2024-02-21T06:50:21;307.20;2304.00
16491;DHT22;8356;51.214;3.270;2024-02-21T06:52:46;307.30;2304.00
16491;DHT22;8356;51.214;3.270;2024-02-21T06:55:12;307.30;2304.00
16491;DHT22;8356;51.214;3.270;2024-02-21T06:57:38;307.30;2304.00
16491;DHT22;8356;51.214;3.270;2024-02-21T07:00:04;307.30;2304.00
16491;DHT22;8356;51.214;3.270;2024-02-21T07:02:33;307.40;2304.00
16491;DHT22;8356;51.214;3.270;2024-02-21T07:04:59;307.30;2304.00
16491;DHT22;8356;51.214;3.270;2024-02-21T07:07:25;307.20;2304.00
16491;DHT22;8356;51.214;3.270;2024-02-21T07:09:50;307.20;2304.00
16491;DHT22;8356;51.214;3.270;2024-02-21T07:12:17;307.20;2304.00
16491;DHT22;8356;51.214;3.270;2024-02-21T07:14:42;307.30;2304.00
16491;DHT22;8356;51.214;3.270;2024-02-21T07:17:08;307.30;2304.00
16491;DHT22;8356;51.214;3.270;2024-02-21T07:19:33;307.30;2304.00
16491;DHT22;8356;51.214;3.270;2024-02-21T07:22:01;307.30;2304.00
16491;DHT22;8356;51.214;3.270;2024-02-21T07:24:26;307.20;2304.00
16491;DHT22;8356;51.214;3.270;2024-02-21T07:26:52;307.20;2304.00
16491;DHT22;8356;51.214;3.270;2024-02-21T07:29:18;307.20;2304.00
16491;DHT22;8356;51.214;3.270;2024-02-21T07:31:44;307.20;2304.00
16491;DHT22;8356;51.214;3.270;2024-02-21T07:34:10;307.20;2304.00
16491;DHT22;8356;51.214;3.270;2024-02-21T07:36:36;307.20;2304.00
16491;DHT22;8356;51.214;3.270;2024-02-21T07:39:04;307.30;2304.00
16491;DHT22;8356;51.214;3.270;2024-02-21T07:41:30;307.20;2304.00
16491;DHT22;8356;51.214;3.270;2024-02-21T07:43:56;307.20;2304.00
16491;DHT22;8356;51.214;3.270;2024-02-21T07:46:22;307.30;2304.00
16491;DHT22;8356;51.214;3.270;2024-02-21T07:48:48;307.30;2304.00
16491;DHT22;8356;51.214;3.270;2024-02-21T07:51:13;307.30;2304.00
16491;DHT22;8356;51.214;3.270;2024-02-21T07:53:39;307.30;2304.00
16491;DHT22;8356;51.214;3.270;2024-02-21T07:56:10;307.30;2304.00
16491;DHT22;8356;51.214;3.270;2024-02-21T07:58:36;307.30;2304.00
16491;DHT22;8356;51.214;3.270;2024-02-21T08:01:01;307.30;2304.00
16491;DHT22;8356;51.214;3.270;2024-02-21T08:03:27;307.40;2304.00
16491;DHT22;8356;51.214;3.270;2024-02-21T08:05:53;307.40;2304.00
16491;DHT22;8356;51.214;3.270;2024-02-21T08:08:18;307.40;2304.00
16491;DHT22;8356;51.214;3.270;2024-02-21T08:10:46;307.40;2304.00
16491;DHT22;8356;51.214;3.270;2024-02-21T08:13:12;307.30;2304.00
16491;DHT22;8356;51.214;3.270;2024-02-21T08:15:37;307.30;2304.00
16491;DHT22;8356;51.214;3.270;2024-02-21T08:18:05;307.40;2304.00
16491;DHT22;8356;51.214;3.270;2024-02-21T08:20:30;307.40;2304.00
16491;DHT22;8356;51.214;3.270;2024-02-21T08:22:56;307.30;2304.00
16491;DHT22;8356;51.214;3.270;2024-02-21T08:25:22;307.30;2304.00
16491;DHT22;8356;51.214;3.270;2024-02-21T08:27:47;307.40;2304.00
16491;DHT22;8356;51.214;3.270;2024-02-21T08:30:13;307.40;2304.00
16491;DHT22;8356;51.214;3.270;2024-02-21T08:32:39;307.40;2304.00
16491;DHT22;8356;51.214;3.270;2024-02-21T08:35:05;307.40;2304.00
16491;DHT22;8356;51.214;3.270;2024-02-21T08:37:30;307.40;2304.00
16491;DHT22;8356;51.214;3.270;2024-02-21T08:39:56;307.40;2304.00
16491;DHT22;8356;51.214;3.270;2024-02-21T08:42:22;307.50;2304.00
16491;DHT22;8356;51.214;3.270;2024-02-21T08:44:47;307.40;2304.00
16491;DHT22;8356;51.214;3.270;2024-02-21T08:47:13;307.50;2304.00
16491;DHT22;8356;51.214;3.270;2024-02-21T08:49:39;307.60;2304.00
16491;DHT22;8356;51.214;3.270;2024-02-21T08:52:05;307.60;2304.00
16491;DHT22;8356;51.214;3.270;2024-02-21T08:54:31;307.60;2304.00
16491;DHT22;8356;51.214;3.270;2024-02-21T08:57:00;307.60;2304.00
16491;DHT22;8356;51.214;3.270;2024-02-21T08:59:26;307.60;2304.00
16491;DHT22;8356;51.214;3.270;2024-02-21T09:01:52;307.60;2304.00
16491;DHT22;8356;51.214;3.270;2024-02-21T09:04:20;307.70;2304.00
16491;DHT22;8356;51.214;3.270;2024-02-21T09:06:46;307.70;2304.00
16491;DHT22;8356;51.214;3.270;2024-02-21T09:09:12;307.70;2304.00
16491;DHT22;8356;51.214;3.270;2024-02-21T09:11:37;307.70;2304.00
16491;DHT22;8356;51.214;3.270;2024-02-21T09:14:03;307.80;2304.00
16491;DHT22;8356;51.214;3.270;2024-02-21T09:16:31;307.60;2304.00
16491;DHT22;8356;51.214;3.270;2024-02-21T09:18:57;307.70;2304.00
16491;DHT22;8356;51.214;3.270;2024-02-21T09:21:23;307.70;2304.00
16491;DHT22;8356;51.214;3.270;2024-02-21T09:23:50;307.70;2304.00
16491;DHT22;8356;51.214;3.270;2024-02-21T09:26:15;307.70;2304.00
16491;DHT22;8356;51.214;3.270;2024-02-21T09:28:42;307.70;2304.00
16491;DHT22;8356;51.214;3.270;2024-02-21T09:31:08;307.80;2304.00
16491;DHT22;8356;51.214;3.270;2024-02-21T09:33:34;307.80;2304.00
16491;DHT22;8356;51.214;3.270;2024-02-21T09:36:01;307.90;2304.00
16491;DHT22;8356;51.214;3.270;2024-02-21T09:38:27;307.80;2304.00
16491;DHT22;8356;51.214;3.270;2024-02-21T09:40:59;307.90;2304.00
16491;DHT22;8356;51.214;3.270;2024-02-21T09:43:29;307.90;2304.00
16491;DHT22;8356;51.214;3.270;2024-02-21T09:45:55;307.90;2304.00
16491;DHT22;8356;51.214;3.270;2024-02-21T09:51:09;308.10;2304.00
16491;DHT22;8356;51.214;3.270;2024-02-21T09:53:37;308.00;2304.00
16491;DHT22;8356;51.214;3.270;2024-02-21T09:56:05;308.10;2304.00
16491;DHT22;8356;51.214;3.270;2024-02-21T09:58:33;308.10;2304.00
16491;DHT22;8356;51.214;3.270;2024-02-21T10:00:59;308.10;2304.00
16491;DHT22;8356;51.214;3.270;2024-02-21T10:03:25;332.80;2329.60
16491;DHT22;8356;51.214;3.270;2024-02-21T10:05:51;332.80;2329.60
16491;DHT22;8356;51.214;3.270;2024-02-21T10:08:17;332.80;2329.60
16491;DHT22;8356;51.214;3.270;2024-02-21T10:10:44;332.90;2329.60
16491;DHT22;8356;51.214;3.270;2024-02-21T10:13:11;332.90;2329.60
16491;DHT22;8356;51.214;3.270;2024-02-21T10:15:39;333.10;2329.60
16491;DHT22;8356;51.214;3.270;2024-02-21T10:18:05;333.10;2329.60
16491;DHT22;8356;51.214;3.270;2024-02-21T10:20:32;333.10;2329.60
16491;DHT22;8356;51.214;3.270;2024-02-21T10:23:03;333.20;2329.60
16491;DHT22;8356;51.214;3.270;2024-02-21T10:25:33;333.20;2329.60
16491;DHT22;8356;51.214;3.270;2024-02-21T10:27:59;333.20;2329.60
16491;DHT22;8356;51.214;3.270;2024-02-21T10:30:24;333.20;2329.60
16491;DHT22;8356;51.214;3.270;2024-02-21T10:32:53;333.20;2329.60
16491;DHT22;8356;51.214;3.270;2024-02-21T10:35:29;333.20;2329.60
16491;DHT22;8356;51.214;3.270;2024-02-21T10:37:56;333.30;2329.60
16491;DHT22;8356;51.214;3.270;2024-02-21T10:40:26;333.30;2329.60
16491;DHT22;8356;51.214;3.270;2024-02-21T10:43:02;333.20;2329.60
16491;DHT22;8356;51.214;3.270;2024-02-21T10:45:34;333.10;2329.60
16491;DHT22;8356;51.214;3.270;2024-02-21T10:48:16;333.10;2329.60
16491;DHT22;8356;51.214;3.270;2024-02-21T10:56:15;333.00;2329.60
16491;DHT22;8356;51.214;3.270;2024-02-21T10:58:44;333.00;2329.60
16491;DHT22;8356;51.214;3.270;2024-02-21T11:01:12;333.00;2329.60
16491;DHT22;8356;51.214;3.270;2024-02-21T11:03:41;333.00;2329.60
16491;DHT22;8356;51.214;3.270;2024-02-21T11:06:10;333.00;2329.60
16491;DHT22;8356;51.214;3.270;2024-02-21T11:08:37;333.10;2329.60
16491;DHT22;8356;51.214;3.270;2024-02-21T11:11:04;333.10;2329.60
16491;DHT22;8356;51.214;3.270;2024-02-21T11:13:37;308.00;2304.00
16491;DHT22;8356;51.214;3.270;2024-02-21T11:16:09;333.10;2329.60
16491;DHT22;8356;51.214;3.270;2024-02-21T11:18:38;333.10;2329.60
16491;DHT22;8356;51.214;3.270;2024-02-21T11:21:04;333.10;2329.60
16491;DHT22;8356;51.214;3.270;2024-02-21T11:23:30;333.10;2329.60
16491;DHT22;8356;51.214;3.270;2024-02-21T11:26:19;333.10;2329.60
16491;DHT22;8356;51.214;3.270;2024-02-21T11:28:59;333.10;2329.60
16491;DHT22;8356;51.214;3.270;2024-02-21T11:31:26;333.20;2329.60
16491;DHT22;8356;51.214;3.270;2024-02-21T11:33:54;333.20;2329.60
16491;DHT22;8356;51.214;3.270;2024-02-21T11:36:24;333.10;2329.60
16491;DHT22;8356;51.214;3.270;2024-02-21T11:38:51;333.00;2329.60
16491;DHT22;8356;51.214;3.270;2024-02-21T11:41:18;333.00;2329.60
16491;DHT22;8356;51.214;3.270;2024-02-21T11:43:44;333.00;2329.60
16491;DHT22;8356;51.214;3.270;2024-02-21T11:46:10;332.90;2329.60
16491;DHT22;8356;51.214;3.270;2024-02-21T11:48:35;332.90;2329.60
16491;DHT22;8356;51.214;3.270;2024-02-21T11:51:01;332.90;2329.60
16491;DHT22;8356;51.214;3.270;2024-02-21T11:53:28;332.90;2329.60
16491;DHT22;8356;51.214;3.270;2024-02-21T11:55:56;333.00;2329.60
16491;DHT22;8356;51.214;3.270;2024-02-21T11:58:22;333.00;2329.60
16491;DHT22;8356;51.214;3.270;2024-02-21T12:00:48;332.90;2329.60
16491;DHT22;8356;51.214;3.270;2024-02-21T12:03:14;333.00;2329.60
16491;DHT22;8356;51.214;3.270;2024-02-21T12:05:41;333.00;2329.60
16491;DHT22;8356;51.214;3.270;2024-02-21T12:08:07;333.00;2329.60
16491;DHT22;8356;51.214;3.270;2024-02-21T12:10:34;333.00;2329.60
16491;DHT22;8356;51.214;3.270;2024-02-21T12:13:10;333.10;2329.60
16491;DHT22;8356;51.214;3.270;2024-02-21T12:15:36;333.10;2329.60
16491;DHT22;8356;51.214;3.270;2024-02-21T12:18:02;333.10;2329.60
16491;DHT22;8356;51.214;3.270;2024-02-21T12:20:27;333.20;2329.60
16491;DHT22;8356;51.214;3.270;2024-02-21T12:22:53;333.30;2329.60
16491;DHT22;8356;51.214;3.270;2024-02-21T12:25:21;333.30;2329.60
16491;DHT22;8356;51.214;3.270;2024-02-21T12:27:54;333.30;2329.60
16491;DHT22;8356;51.214;3.270;2024-02-21T12:30:19;333.30;2329.60
16491;DHT22;8356;51.214;3.270;2024-02-21T12:32:46;333.20;2329.60
16491;DHT22;8356;51.214;3.270;2024-02-21T12:35:12;333.20;2329.60
16491;DHT22;8356;51.214;3.270;2024-02-21T12:37:37;333.20;2329.60
16491;DHT22;8356;51.214;3.270;2024-02-21T12:40:05;333.20;2329.60
16491;DHT22;8356;51.214;3.270;2024-02-21T12:42:32;333.20;2329.60
16491;DHT22;8356;51.214;3.270;2024-02-21T12:44:59;333.20;2329.60
16491;DHT22;8356;51.214;3.270;2024-02-21T12:47:24;333.30;2329.60
16491;DHT22;8356;51.214;3.270;2024-02-21T12:49:52;333.20;2329.60
16491;DHT22;8356;51.214;3.270;2024-02-21T12:52:18;333.20;2329.60
16491;DHT22;8356;51.214;3.270;2024-02-21T12:54:44;333.20;2329.60
16491;DHT22;8356;51.214;3.270;2024-02-21T12:57:09;333.20;2329.60
16491;DHT22;8356;51.214;3.270;2024-02-21T12:59:35;333.10;2329.60
16491;DHT22;8356;51.214;3.270;2024-02-21T13:02:00;333.10;2329.60
16491;DHT22;8356;51.214;3.270;2024-02-21T13:04:26;333.00;2329.60
16491;DHT22;8356;51.214;3.270;2024-02-21T13:06:52;333.00;2329.60
16491;DHT22;8356;51.214;3.270;2024-02-21T13:09:17;333.00;2329.60
16491;DHT22;8356;51.214;3.270;2024-02-21T13:11:43;333.00;2329.60
16491;DHT22;8356;51.214;3.270;2024-02-21T13:14:11;332.90;2329.60
16491;DHT22;8356;51.214;3.270;2024-02-21T13:16:37;332.90;2329.60
16491;DHT22;8356;51.214;3.270;2024-02-21T13:19:08;332.80;2329.60
16491;DHT22;8356;51.214;3.270;2024-02-21T13:21:36;332.80;2329.60
16491;DHT22;8356;51.214;3.270;2024-02-21T13:24:02;332.90;2329.60
16491;DHT22;8356;51.214;3.270;2024-02-21T13:26:28;332.80;2329.60
16491;DHT22;8356;51.214;3.270;2024-02-21T13:28:54;332.90;2329.60
16491;DHT22;8356;51.214;3.270;2024-02-21T13:31:20;332.80;2329.60
16491;DHT22;8356;51.214;3.270;2024-02-21T13:33:46;332.90;2329.60
16491;DHT22;8356;51.214;3.270;2024-02-21T13:36:11;332.90;2329.60
16491;DHT22;8356;51.214;3.270;2024-02-21T13:38:38;332.90;2329.60
16491;DHT22;8356;51.214;3.270;2024-02-21T13:41:05;332.90;2329.60
16491;DHT22;8356;51.214;3.270;2024-02-21T13:43:31;332.80;2329.60
16491;DHT22;8356;51.214;3.270;2024-02-21T13:45:58;332.80;2329.60
16491;DHT22;8356;51.214;3.270;2024-02-21T13:48:24;332.80;2329.60
16491;DHT22;8356;51.214;3.270;2024-02-21T13:50:50;308.10;2304.00
16491;DHT22;8356;51.214;3.270;2024-02-21T13:53:15;308.10;2304.00
16491;DHT22;8356;51.214;3.270;2024-02-21T13:55:44;308.10;2304.00
16491;DHT22;8356;51.214;3.270;2024-02-21T13:58:10;308.00;2304.00
16491;DHT22;8356;51.214;3.270;2024-02-21T14:00:35;308.00;2304.00
16491;DHT22;8356;51.214;3.270;2024-02-21T14:03:01;308.10;2304.00
16491;DHT22;8356;51.214;3.270;2024-02-21T14:05:27;333.40;2329.60
16491;DHT22;8356;51.214;3.270;2024-02-21T14:07:53;308.00;2304.00
16491;DHT22;8356;51.214;3.270;2024-02-21T14:10:20;308.10;2304.00
16491;DHT22;8356;51.214;3.270;2024-02-21T14:12:46;307.60;2304.00
16491;DHT22;8356;51.214;3.270;2024-02-21T14:15:13;308.00;2304.00
16491;DHT22;8356;51.214;3.270;2024-02-21T14:17:39;307.90;2304.00
16491;DHT22;8356;51.214;3.270;2024-02-21T14:20:06;307.90;2304.00
16491;DHT22;8356;51.214;3.270;2024-02-21T14:22:32;307.90;2304.00
16491;DHT22;8356;51.214;3.270;2024-02-21T14:24:58;307.90;2304.00
16491;DHT22;8356;51.214;3.270;2024-02-21T14:27:24;307.90;2304.00
16491;DHT22;8356;51.214;3.270;2024-02-21T14:29:49;307.90;2304.00
16491;DHT22;8356;51.214;3.270;2024-02-21T14:32:15;307.80;2304.00
16491;DHT22;8356;51.214;3.270;2024-02-21T14:34:41;307.80;2304.00
16491;DHT22;8356;51.214;3.270;2024-02-21T14:37:06;307.80;2304.00
16491;DHT22;8356;51.214;3.270;2024-02-21T14:39:32;307.70;2304.00
16491;DHT22;8356;51.214;3.270;2024-02-21T14:42:00;307.70;2304.00
16491;DHT22;8356;51.214;3.270;2024-02-21T14:44:25;307.80;2304.00
16491;DHT22;8356;51.214;3.270;2024-02-21T14:46:52;307.80;2304.00
16491;DHT22;8356;51.214;3.270;2024-02-21T14:49:18;307.80;2304.00
16491;DHT22;8356;51.214;3.270;2024-02-21T14:51:44;307.70;2304.00
16491;DHT22;8356;51.214;3.270;2024-02-21T14:54:10;307.70;2304.00
16491;DHT22;8356;51.214;3.270;2024-02-21T14:56:36;307.80;2304.00
16491;DHT22;8356;51.214;3.270;2024-02-21T14:59:02;307.70;2304.00
16491;DHT22;8356;51.214;3.270;2024-02-21T15:01:29;307.80;2304.00
16491;DHT22;8356;51.214;3.270;2024-02-21T15:03:55;307.90;2304.00
16491;DHT22;8356;51.214;3.270;2024-02-21T15:06:20;307.80;2304.00
16491;DHT22;8356;51.214;3.270;2024-02-21T15:08:46;307.80;2304.00
16491;DHT22;8356;51.214;3.270;2024-02-21T15:11:14;307.80;2304.00
16491;DHT22;8356;51.214;3.270;2024-02-21T15:13:39;307.80;2304.00
16491;DHT22;8356;51.214;3.270;2024-02-21T15:16:05;307.80;2304.00
16491;DHT22;8356;51.214;3.270;2024-02-21T15:18:31;307.90;2304.00
16491;DHT22;8356;51.214;3.270;2024-02-21T15:20:59;307.90;2304.00
16491;DHT22;8356;51.214;3.270;2024-02-21T15:23:25;307.80;2304.00
16491;DHT22;8356;51.214;3.270;2024-02-21T15:25:51;307.80;2304.00
16491;DHT22;8356;51.214;3.270;2024-02-21T15:28:17;307.80;2304.00
16491;DHT22;8356;51.214;3.270;2024-02-21T15:30:42;307.80;2304.00
16491;DHT22;8356;51.214;3.270;2024-02-21T15:33:08;307.80;2304.00